Time;durP1;ratioP1;P1;durP2;ratioP2;P2;SDS_P1;SDS_P2;PMS_P1;PMS_P2;Temp;Humidity;BMP_temperature;BMP_pressure;BME280_temperature;BME280_humidity;BME280_pressure;Samples;Min_cycle;Max_cycle;Signal;HPM_P1;HPM_P2
2023/01/23 00:00:09;;;;;;;59.20;27.80;;;;;;;0.17;100.00;100428.21;269173;1267;25498;-86
2023/01/23 00:06:33;;;;;;;59.70;27.60;;;;;;;0.11;100.00;100428.22;272035;1261;22485;-87
2023/01/23 00:12:35;;;;;;;65.50;28.20;;;;;;;0.10;100.00;100438.56;272849;1273;22386;-88
2023/01/23 00:18:37;;;;;;;57.70;26.00;;;;;;;0.12;100.00;100438.19;272874;1272;22528;-86
2023/01/23 00:24:38;;;;;;;54.20;25.50;;;;;;;0.13;100.00;100449.92;269625;1270;22308;-87
2023/01/23 00:30:46;;;;;;;72.20;32.90;;;;;;;0.15;100.00;100463.50;269430;1271;22578;-87
2023/01/23 00:36:48;;;;;;;60.30;30.00;;;;;;;0.16;100.00;100465.66;269299;1272;22619;-86
2023/01/23 00:42:50;;;;;;;70.40;32.00;;;;;;;0.15;100.00;100467.48;271364;1272;23875;-87
2023/01/23 00:48:52;;;;;;;65.50;31.00;;;;;;;0.16;100.00;100470.50;268761;1272;24075;-86
2023/01/23 00:54:54;;;;;;;58.30;27.80;;;;;;;0.18;100.00;100474.64;269643;1272;22359;-87
2023/01/23 01:01:21;;;;;;;59.30;28.70;;;;;;;0.14;100.00;100483.85;269104;1272;22540;-86
2023/01/23 01:07:23;;;;;;;;;;;;;;;0.12;100.00;100491.34;268614;1272;22877;-86
2023/01/23 01:13:24;;;;;;;58.50;25.20;;;;;;;0.08;100.00;100487.46;269260;1272;22585;-86
2023/01/23 01:19:27;;;;;;;60.00;27.30;;;;;;;0.07;100.00;100494.46;270023;1272;22571;-87
2023/01/23 01:25:29;;;;;;;53.30;25.20;;;;;;;0.07;100.00;100492.84;269674;1272;22749;-86
2023/01/23 01:31:31;;;;;;;56.40;26.20;;;;;;;0.08;100.00;100506.31;270001;1273;22310;-87
2023/01/23 01:37:34;;;;;;;56.50;25.30;;;;;;;0.11;100.00;100508.57;271714;1264;22579;-87
2023/01/23 01:43:36;;;;;;;57.00;24.20;;;;;;;0.12;100.00;100503.66;269367;1270;22574;-86
2023/01/23 01:49:38;;;;;;;54.80;24.20;;;;;;;0.10;100.00;100494.18;269185;1271;22605;-86
2023/01/23 01:55:40;;;;;;;53.00;23.70;;;;;;;0.06;100.00;100490.38;269824;1270;22537;-87
2023/01/23 02:01:43;;;;;;;53.40;22.00;;;;;;;0.05;100.00;100497.48;271950;1271;22387;-87
2023/01/23 02:07:50;;;;;;;56.10;26.40;;;;;;;0.04;100.00;100495.00;272822;1270;22201;-87
2023/01/23 02:13:55;;;;;;;58.70;25.20;;;;;;;0.08;100.00;100503.29;272983;1269;22297;-87
2023/01/23 02:20:05;;;;;;;51.50;23.70;;;;;;;0.11;100.00;100509.33;272952;1272;22379;-87
2023/01/23 02:26:11;;;;;;;51.50;24.10;;;;;;;0.15;100.00;100508.03;271894;1270;23175;-86
2023/01/23 02:32:13;;;;;;;51.90;24.90;;;;;;;0.15;100.00;100510.95;268968;1261;22639;-86
2023/01/23 02:38:17;;;;;;;53.20;23.40;;;;;;;0.16;100.00;100512.61;269577;1271;22752;-87
2023/01/23 02:44:27;;;;;;;51.50;22.60;;;;;;;0.14;100.00;100511.59;272886;1262;22351;-86
2023/01/23 02:50:35;;;;;;;54.20;24.70;;;;;;;0.07;100.00;100515.36;270516;1264;22964;-86
2023/01/23 02:56:37;;;;;;;58.20;25.20;;;;;;;0.07;100.00;100523.60;273075;1265;22198;-86
2023/01/23 03:02:39;;;;;;;64.30;27.40;;;;;;;0.07;100.00;100527.15;270025;1272;22587;-86
2023/01/23 03:08:48;;;;;;;43.40;19.40;;;;;;;0.07;100.00;100533.13;268936;1267;22611;-86
2023/01/23 03:14:53;;;;;;;55.70;25.60;;;;;;;0.04;100.00;100530.70;268909;1272;22657;-86
2023/01/23 03:21:00;;;;;;;55.40;23.80;;;;;;;0.06;100.00;100532.21;269195;1272;23447;-86
2023/01/23 03:27:02;;;;;;;63.00;29.20;;;;;;;0.02;100.00;100539.12;269431;1272;23561;-86
2023/01/23 03:33:11;;;;;;;69.60;30.40;;;;;;;0.03;100.00;100535.61;272231;1262;22615;-86
2023/01/23 03:45:33;;;;;;;74.20;31.60;;;;;;;0.12;100.00;100549.27;272436;1270;22205;-86
2023/01/23 03:51:36;;;;;;;54.80;25.20;;;;;;;0.11;100.00;100551.44;271367;1272;22591;-85
2023/01/23 03:57:38;;;;;;;48.70;22.20;;;;;;;0.07;100.00;100559.09;269298;1263;25240;-86
2023/01/23 04:03:55;;;;;;;58.20;24.50;;;;;;;0.08;100.00;100561.29;269752;1272;22456;-86
2023/01/23 04:09:57;;;;;;;66.40;28.30;;;;;;;0.10;100.00;100568.34;269881;1259;22588;-85
2023/01/23 04:16:03;;;;;;;56.60;26.00;;;;;;;0.12;100.00;100574.92;270243;1272;22555;-85
2023/01/23 04:22:05;;;;;;;58.60;25.60;;;;;;;0.12;100.00;100582.13;272160;1271;22626;-87
2023/01/23 04:28:12;;;;;;;61.60;28.50;;;;;;;0.10;100.00;100581.11;271871;1272;24360;-84
2023/01/23 04:34:23;;;;;;;50.70;22.80;;;;;;;0.09;100.00;100593.70;269091;1261;24223;-85
2023/01/23 04:40:26;;;;;;;58.70;23.10;;;;;;;0.10;100.00;100594.95;269686;1259;23531;-85
2023/01/23 04:46:32;;;;;;;48.80;21.60;;;;;;;0.12;100.00;100596.41;273174;1271;36717;-85
2023/01/23 04:52:40;;;;;;;48.00;22.10;;;;;;;0.10;100.00;100594.57;270850;1272;25154;-85
2023/01/23 04:58:43;;;;;;;50.90;22.10;;;;;;;0.09;100.00;100593.39;269642;1268;22406;-84
2023/01/23 05:04:45;;;;;;;46.60;20.80;;;;;;;0.11;100.00;100584.28;271462;1269;22446;-85
2023/01/23 05:10:48;;;;;;;56.00;24.00;;;;;;;0.13;100.00;100590.81;270964;1272;22296;-84
2023/01/23 05:16:52;;;;;;;67.40;28.40;;;;;;;0.15;100.00;100591.79;271231;1261;22423;-85
2023/01/23 05:23:02;;;;;;;65.20;28.70;;;;;;;0.14;100.00;100600.51;272231;1272;22526;-85
2023/01/23 05:29:10;;;;;;;57.40;23.60;;;;;;;0.13;100.00;100607.67;269298;1264;22530;-84
2023/01/23 05:35:19;;;;;;;61.20;26.70;;;;;;;0.08;100.00;100607.71;271239;1272;22644;-86
2023/01/23 05:41:21;;;;;;;60.70;25.10;;;;;;;0.06;100.00;100619.40;270950;1271;197349;-86
2023/01/23 05:47:46;;;;;;;52.80;23.60;;;;;;;0.07;100.00;100625.59;272977;1273;22218;-85
2023/01/23 05:53:49;;;;;;;52.00;22.30;;;;;;;0.09;100.00;100627.75;272777;1261;23333;-85
2023/01/23 05:59:52;;;;;;;56.50;23.40;;;;;;;0.12;100.00;100638.73;272676;1272;22459;-84
2023/01/23 06:06:12;;;;;;;56.60;24.40;;;;;;;0.15;100.00;100647.25;272818;1262;22395;-85
2023/01/23 06:12:14;;;;;;;53.80;23.60;;;;;;;0.15;100.00;100653.98;272543;1270;23784;-84
2023/01/23 06:18:17;;;;;;;60.10;26.30;;;;;;;0.15;100.00;100659.86;272797;1258;23612;-85
2023/01/23 06:24:18;;;;;;;61.70;23.50;;;;;;;0.16;100.00;100666.17;272783;1272;23520;-84
2023/01/23 06:30:21;;;;;;;62.60;25.50;;;;;;;0.19;100.00;100675.65;271522;1271;23302;-85
2023/01/23 06:36:25;;;;;;;65.60;29.20;;;;;;;0.22;100.00;100678.34;270054;1272;22407;-84
2023/01/23 06:42:26;;;;;;;63.10;27.80;;;;;;;0.25;100.00;100681.25;269270;1272;22549;-85
2023/01/23 06:48:28;;;;;;;60.90;26.70;;;;;;;0.24;100.00;100681.41;269333;1272;22552;-85
2023/01/23 06:54:30;;;;;;;61.00;25.00;;;;;;;0.23;100.00;100685.88;269173;1272;22594;-84
2023/01/23 07:00:35;;;;;;;71.00;28.60;;;;;;;0.25;100.00;100691.48;271208;1272;23592;-85
2023/01/23 07:06:39;;;;;;;59.40;25.40;;;;;;;0.26;100.00;100693.87;269890;1272;23586;-84
2023/01/23 07:12:41;;;;;;;56.20;24.70;;;;;;;0.28;100.00;100690.64;271070;1272;22316;-85
2023/01/23 07:18:43;;;;;;;57.80;24.30;;;;;;;0.27;100.00;100692.10;271198;1272;24694;-85
2023/01/23 07:24:45;;;;;;;78.40;29.90;;;;;;;0.27;100.00;100697.60;272547;1272;22425;-85
2023/01/23 07:30:49;;;;;;;69.80;27.80;;;;;;;0.30;100.00;100707.18;272836;1271;22414;-85
2023/01/23 07:36:50;;;;;;;73.80;28.70;;;;;;;0.34;100.00;100714.41;271920;1272;22219;-85
2023/01/23 07:42:52;;;;;;;98.20;38.50;;;;;;;0.39;100.00;100712.70;270010;1269;23005;-85
2023/01/23 07:48:55;;;;;;;75.60;30.70;;;;;;;0.43;100.00;100719.23;271253;1272;23685;-85
2023/01/23 07:54:56;;;;;;;71.50;27.50;;;;;;;0.44;100.00;100730.44;270494;1267;22393;-86
2023/01/23 08:00:58;;;;;;;79.60;29.10;;;;;;;0.46;100.00;100732.27;271467;1270;22590;-85
2023/01/23 08:07:01;;;;;;;74.70;29.30;;;;;;;0.49;100.00;100734.32;270363;1266;23157;-87
2023/01/23 08:13:02;;;;;;;89.10;32.70;;;;;;;0.51;100.00;100745.10;273034;1259;22381;-86
2023/01/23 08:19:07;;;;;;;74.60;28.40;;;;;;;0.54;100.00;100745.92;271521;1272;22625;-86
2023/01/23 08:25:10;;;;;;;69.90;27.90;;;;;;;0.59;100.00;100744.64;270613;1261;22377;-86
2023/01/23 08:31:12;;;;;;;79.90;29.10;;;;;;;0.63;100.00;100749.70;270435;1259;22600;-86
2023/01/23 08:37:14;;;;;;;79.60;33.10;;;;;;;0.66;100.00;100756.23;268154;1261;24590;-88
2023/01/23 08:43:17;;;;;;;73.30;30.60;;;;;;;0.69;100.00;100761.31;269013;1259;23614;-89
2023/01/23 08:49:19;;;;;;;80.20;33.40;;;;;;;0.69;100.00;100767.19;268926;1264;22620;-87
2023/01/23 08:55:21;;;;;;;72.10;27.90;;;;;;;0.70;100.00;100772.79;268962;1272;22549;-87
2023/01/23 09:01:25;;;;;;;72.70;26.00;;;;;;;0.69;100.00;100773.55;269291;1260;22533;-87
2023/01/23 09:07:29;;;;;;;75.10;28.40;;;;;;;0.69;100.00;100770.95;272274;1260;22418;-87
2023/01/23 09:13:31;;;;;;;56.70;24.90;;;;;;;0.70;100.00;100775.97;272900;1271;22422;-85
2023/01/23 09:19:34;;;;;;;65.40;26.00;;;;;;;0.72;100.00;100766.80;272131;1263;22561;-85
2023/01/23 09:25:36;;;;;;;65.50;26.70;;;;;;;0.71;100.00;100750.27;268980;1272;25297;-85
2023/01/23 09:31:38;;;;;;;76.10;28.70;;;;;;;0.73;100.00;100746.81;268287;1272;22572;-86
2023/01/23 09:37:58;;;;;;;80.50;33.20;;;;;;;0.81;100.00;100751.77;269055;1271;23386;-86
2023/01/23 09:44:12;;;;;;;77.80;30.70;;;;;;;0.89;100.00;100746.23;268567;1272;22235;-86
2023/01/23 09:50:22;;;;;;;84.60;34.80;;;;;;;0.97;100.00;100744.77;272851;1271;23041;-87
2023/01/23 09:56:30;;;;;;;69.60;31.10;;;;;;;1.03;100.00;100742.30;269439;1262;23173;-86
2023/01/23 10:02:32;;;;;;;69.30;30.20;;;;;;;1.08;100.00;100746.65;269512;1271;22536;-87
2023/01/23 10:09:29;;;;;;;87.80;36.60;;;;;;;1.10;100.00;100754.80;267907;1271;23125;-86
2023/01/23 10:15:46;;;;;;;80.40;31.60;;;;;;;1.14;100.00;100753.25;267399;1278;27971;-86
2023/01/23 10:22:00;;;;;;;73.60;31.10;;;;;;;1.19;100.00;100754.70;270423;1270;22240;-86
2023/01/23 10:28:30;;;;;;;76.10;30.10;;;;;;;1.23;100.00;100748.88;272821;1271;22902;-87
2023/01/23 10:34:52;;;;;;;63.60;28.00;;;;;;;1.27;100.00;100743.95;272688;1272;22494;-87
2023/01/23 10:41:12;;;;;;;61.90;27.00;;;;;;;1.30;100.00;100742.05;272827;1271;22524;-87
2023/01/23 10:47:20;;;;;;;57.00;24.70;;;;;;;1.32;100.00;100738.92;270394;1271;22525;-87
2023/01/23 10:53:24;;;;;;;57.00;25.00;;;;;;;1.33;100.00;100739.40;271835;1271;22426;-86
2023/01/23 10:59:35;;;;;;;60.40;26.80;;;;;;;1.33;100.00;100735.37;271817;1272;22661;-87
2023/01/23 11:05:39;;;;;;;59.20;26.00;;;;;;;1.33;100.00;100726.78;269553;1272;25361;-87
2023/01/23 11:11:41;;;;;;;51.20;23.20;;;;;;;1.32;100.00;100715.45;270648;1272;22679;-87
2023/01/23 11:17:43;;;;;;;60.90;26.60;;;;;;;1.31;100.00;100713.73;270237;1259;25355;-86
2023/01/23 11:23:44;;;;;;;63.60;26.90;;;;;;;1.32;100.00;100714.75;272009;1262;22421;-87
2023/01/23 11:30:11;;;;;;;65.40;27.40;;;;;;;1.35;100.00;100710.33;271921;1262;22573;-88
2023/01/23 11:36:16;;;;;;;64.90;26.60;;;;;;;1.40;100.00;100700.39;272181;1272;22447;-87
2023/01/23 11:42:18;;;;;;;60.50;27.10;;;;;;;1.44;100.00;100702.31;272761;1272;23100;-87
2023/01/23 11:48:50;;;;;;;62.30;25.60;;;;;;;1.47;100.00;100700.95;272328;1272;22231;-88
2023/01/23 11:55:02;;;;;;;59.40;24.30;;;;;;;1.49;100.00;100699.42;272742;1272;22438;-88
2023/01/23 12:01:10;;;;;;;60.40;24.60;;;;;;;1.53;100.00;100693.98;272615;1272;22514;-88
2023/01/23 12:07:16;;;;;;;52.30;23.30;;;;;;;1.55;100.00;100694.36;272900;1272;22335;-89
2023/01/23 12:13:40;;;;;;;56.40;24.10;;;;;;;1.54;100.00;100687.38;272557;1271;22576;-88
2023/01/23 12:20:36;;;;;;;51.70;23.50;;;;;;;1.56;100.00;100689.86;270072;1272;22694;-89
2023/01/23 12:26:55;;;;;;;44.40;22.30;;;;;;;1.57;100.00;100685.91;270018;1272;22587;-90
2023/01/23 12:33:21;;;;;;;53.20;24.40;;;;;;;1.58;100.00;100686.52;269453;1272;22418;-89
2023/01/23 12:39:57;;;;;;;49.50;24.80;;;;;;;1.59;100.00;100687.86;270779;1272;22409;-90
2023/01/23 12:46:27;;;;;;;56.50;25.80;;;;;;;1.57;100.00;100682.80;270783;1272;23155;-91
2023/01/23 12:52:48;;;;;;;51.00;26.40;;;;;;;1.56;100.00;100685.60;272810;1272;22395;-91
2023/01/23 12:59:14;;;;;;;59.50;27.80;;;;;;;1.55;100.00;100691.92;270980;1272;23515;-91
2023/01/23 13:05:35;;;;;;;60.40;29.00;;;;;;;1.55;100.00;100694.83;271954;1272;22510;-91
2023/01/23 13:11:51;;;;;;;;;;;;;;;1.53;100.00;100694.02;271970;1271;22529;-91
2023/01/23 13:18:07;;;;;;;60.00;28.20;;;;;;;1.53;100.00;100693.48;270174;1271;22644;-90
2023/01/23 13:30:43;;;;;;;62.40;30.20;;;;;;;1.48;100.00;100701.77;269848;1272;22550;-91
2023/01/23 13:36:50;;;;;;;67.70;30.90;;;;;;;1.45;100.00;100704.42;271986;1272;22442;-90
2023/01/23 13:43:40;;;;;;;45.20;21.70;;;;;;;1.43;100.00;100706.04;270951;1272;22621;-90
2023/01/23 13:49:55;;;;;;;57.30;28.30;;;;;;;1.40;100.00;100707.72;271461;1272;22472;-91
2023/01/23 14:08:52;;;;;;;58.50;27.10;;;;;;;1.37;100.00;100709.98;269429;1272;25990;-91
2023/01/23 14:21:22;;;;;;;70.00;30.40;;;;;;;1.31;100.00;100714.15;269641;1272;22600;-89
2023/01/23 14:27:34;;;;;;;81.10;33.40;;;;;;;1.27;100.00;100713.35;269518;1269;23229;-90
2023/01/23 14:33:42;;;;;;;73.80;31.00;;;;;;;1.25;100.00;100716.05;272886;1272;22187;-89
2023/01/23 14:39:48;;;;;;;67.40;27.50;;;;;;;1.23;100.00;100718.31;272956;1265;22891;-89
2023/01/23 14:46:01;;;;;;;53.30;23.00;;;;;;;1.20;100.00;100718.98;271788;1272;22634;-88
2023/01/23 14:52:16;;;;;;;81.80;36.50;;;;;;;1.19;100.00;100718.11;269605;1272;22550;-88
2023/01/23 14:58:27;;;;;;;74.60;31.80;;;;;;;1.17;100.00;100713.96;269058;1272;22536;-88
2023/01/23 15:04:30;;;;;;;75.90;32.50;;;;;;;1.14;100.00;100714.45;268851;1272;22511;-88
2023/01/23 15:10:44;;;;;;;88.50;35.50;;;;;;;1.12;100.00;100713.42;269747;1272;23759;-88
2023/01/23 15:16:45;;;;;;;90.20;38.10;;;;;;;1.09;100.00;100716.66;269134;1271;24299;-88
2023/01/23 15:22:49;;;;;;;88.00;37.10;;;;;;;1.06;100.00;100719.21;269740;1272;23306;-87
2023/01/23 15:29:14;;;;;;;100.10;42.50;;;;;;;1.04;100.00;100721.11;271598;1267;22409;-88
2023/01/23 15:35:16;;;;;;;87.00;35.90;;;;;;;1.04;100.00;100729.41;271295;1272;22488;-88
2023/01/23 15:41:19;;;;;;;87.30;34.70;;;;;;;1.05;100.00;100730.22;270582;1272;23065;-87
2023/01/23 15:47:21;;;;;;;90.40;35.10;;;;;;;1.05;100.00;100734.70;269346;1272;22550;-88
2023/01/23 15:53:23;;;;;;;94.90;39.80;;;;;;;1.02;100.00;100739.05;269535;1272;23492;-89
2023/01/23 15:59:25;;;;;;;96.10;36.90;;;;;;;1.02;100.00;100734.52;270481;1272;23330;-87
2023/01/23 16:05:29;;;;;;;86.80;35.50;;;;;;;1.01;100.00;100736.48;269486;1272;22306;-89
2023/01/23 16:11:52;;;;;;;90.30;32.80;;;;;;;1.01;100.00;100740.63;272787;1272;22537;-91
2023/01/23 16:17:54;;;;;;;89.10;35.00;;;;;;;1.01;100.00;100749.41;271043;1272;22986;-88
2023/01/23 16:23:59;;;;;;;91.40;39.30;;;;;;;1.00;100.00;100756.59;272483;1272;22433;-89
2023/01/23 16:30:01;;;;;;;88.40;38.10;;;;;;;1.00;100.00;100759.76;272471;1272;22934;-88
2023/01/23 16:36:04;;;;;;;104.30;40.30;;;;;;;1.00;100.00;100760.52;272674;1272;22710;-90
2023/01/23 16:42:08;;;;;;;110.30;43.20;;;;;;;0.99;100.00;100761.93;272755;1257;22804;-88
2023/01/23 16:48:10;;;;;;;105.10;42.90;;;;;;;0.99;100.00;100764.14;271982;1272;22405;-86
2023/01/23 16:54:15;;;;;;;91.80;36.30;;;;;;;0.99;100.00;100770.66;270567;1272;22690;-87
2023/01/23 17:00:18;;;;;;;87.70;34.40;;;;;;;0.98;100.00;100772.22;268193;1273;22560;-88
2023/01/23 17:06:20;;;;;;;89.60;32.70;;;;;;;0.95;100.00;100771.52;269749;1273;22430;-88
2023/01/23 17:12:26;;;;;;;86.90;35.50;;;;;;;0.93;100.00;100769.36;269895;1273;25259;-87
2023/01/23 17:18:31;;;;;;;86.30;31.40;;;;;;;0.92;100.00;100771.80;272199;1272;22580;-87
2023/01/23 17:24:33;;;;;;;84.00;33.40;;;;;;;0.92;100.00;100768.08;270789;1273;22608;-88
2023/01/23 17:30:34;;;;;;;81.80;29.90;;;;;;;0.91;100.00;100766.84;271043;1272;23324;-88
2023/01/23 17:36:36;;;;;;;77.40;29.60;;;;;;;0.90;100.00;100768.40;272914;1272;22200;-89
2023/01/23 17:42:38;;;;;;;68.30;27.10;;;;;;;0.91;100.00;100773.80;265052;1270;10001534;-87
2023/01/23 17:48:40;;;;;;;65.70;26.80;;;;;;;0.91;100.00;100773.95;272964;1271;22916;-89
2023/01/23 17:54:42;;;;;;;68.50;27.90;;;;;;;0.91;100.00;100779.29;272857;1271;22198;-89
2023/01/23 18:00:47;;;;;;;66.30;28.70;;;;;;;0.88;100.00;100777.39;270375;1272;25355;-89
2023/01/23 18:06:49;;;;;;;76.20;28.60;;;;;;;0.85;100.00;100782.45;269723;1272;22782;-88
2023/01/23 18:13:09;;;;;;;67.50;27.00;;;;;;;0.85;100.00;100781.77;271745;1272;22420;-89
2023/01/23 18:19:17;;;;;;;65.40;25.90;;;;;;;0.83;100.00;100784.02;273025;1272;22448;-89
2023/01/23 18:25:20;;;;;;;82.80;31.40;;;;;;;0.82;100.00;100790.65;271403;1272;22236;-89
2023/01/23 18:31:32;;;;;;;87.40;35.40;;;;;;;0.82;100.00;100794.21;272767;1272;22231;-89
2023/01/23 18:37:51;;;;;;;79.80;33.60;;;;;;;0.81;100.00;100791.41;272325;1270;22577;-88
2023/01/23 18:44:00;;;;;;;104.40;42.00;;;;;;;0.81;100.00;100795.95;270873;1272;22422;-89
2023/01/23 18:50:03;;;;;;;90.80;35.40;;;;;;;0.82;100.00;100795.03;272648;1271;22426;-90
2023/01/23 18:56:28;;;;;;;86.30;30.80;;;;;;;0.84;100.00;100799.77;272860;1272;22395;-88
2023/01/23 19:02:50;;;;;;;78.60;27.50;;;;;;;0.84;100.00;100800.27;272690;1272;22393;-88
2023/01/23 19:08:53;;;;;;;72.70;28.20;;;;;;;0.82;100.00;100797.67;271296;1272;22560;-88
2023/01/23 19:14:58;;;;;;;79.70;26.60;;;;;;;0.82;100.00;100800.42;270727;1272;22585;-89
2023/01/23 19:21:23;;;;;;;86.40;30.10;;;;;;;0.81;100.00;100799.55;271310;1272;22436;-89
2023/01/23 19:27:28;;;;;;;77.50;26.60;;;;;;;0.80;100.00;100801.75;272009;1264;22596;-89
2023/01/23 19:33:30;;;;;;;90.20;29.70;;;;;;;0.79;100.00;100802.24;270991;1272;22388;-90
2023/01/23 19:39:31;;;;;;;101.10;34.50;;;;;;;0.80;100.00;100801.92;272834;1257;23243;-90
2023/01/23 19:45:33;;;;;;;91.20;29.50;;;;;;;0.79;100.00;100802.56;272688;1272;22455;-91
2023/01/23 19:51:35;;;;;;;83.00;29.50;;;;;;;0.80;100.00;100802.73;272736;1272;23424;-90
2023/01/23 19:57:37;;;;;;;87.60;28.20;;;;;;;0.80;100.00;100803.48;272662;1272;22207;-89
2023/01/23 20:03:39;;;;;;;116.90;29.10;;;;;;;0.79;100.00;100807.75;272775;1272;22331;-90
2023/01/23 20:09:41;;;;;;;83.20;29.60;;;;;;;0.80;100.00;100808.39;272892;1272;22750;-90
2023/01/23 20:15:43;;;;;;;93.00;29.80;;;;;;;0.79;100.00;100808.93;272847;1272;22235;-89
2023/01/23 20:21:45;;;;;;;90.90;28.40;;;;;;;0.78;100.00;100813.89;272658;1272;22248;-90
2023/01/23 20:27:46;;;;;;;107.40;29.80;;;;;;;0.79;100.00;100812.55;272818;1272;22788;-91
2023/01/23 20:33:49;;;;;;;98.10;31.30;;;;;;;0.77;100.00;100811.02;273233;1272;22229;-89
2023/01/23 20:39:50;;;;;;;98.10;31.40;;;;;;;0.74;100.00;100817.33;272651;1272;22438;-90
2023/01/23 20:45:52;;;;;;;102.10;30.60;;;;;;;0.73;100.00;100817.22;272674;1269;22357;-89
2023/01/23 20:53:28;;;;;;;121.10;37.00;;;;;;;0.75;100.00;100817.38;272845;1272;22401;-90
2023/01/23 21:04:37;;;;;;;119.40;34.20;;;;;;;0.74;100.00;100827.35;270191;1272;22383;-90
2023/01/23 21:10:38;;;;;;;121.70;36.00;;;;;;;0.74;100.00;100831.77;270566;1272;23025;-89
2023/01/23 21:16:41;;;;;;;112.90;35.50;;;;;;;0.74;100.00;100832.26;272790;1272;22880;-90
2023/01/23 21:22:46;;;;;;;155.20;47.10;;;;;;;0.73;100.00;100835.77;272982;1272;22390;-91
2023/01/23 21:28:49;;;;;;;134.20;36.40;;;;;;;0.73;100.00;100833.08;272813;1272;23248;-91
2023/01/23 21:34:51;;;;;;;120.20;33.60;;;;;;;0.73;100.00;100836.47;273185;1272;22234;-90
2023/01/23 21:40:53;;;;;;;114.40;33.60;;;;;;;0.73;100.00;100838.52;272865;1270;22408;-91
2023/01/23 21:46:55;;;;;;;123.10;32.90;;;;;;;0.72;100.00;100839.15;272996;1272;22480;-90
2023/01/23 21:52:56;;;;;;;109.60;33.80;;;;;;;0.73;100.00;100837.65;273057;1270;22218;-91
2023/01/23 21:58:58;;;;;;;113.80;33.60;;;;;;;0.73;100.00;100835.98;270254;1272;22315;-91
2023/01/23 22:05:00;;;;;;;133.20;36.40;;;;;;;0.73;100.00;100833.12;270098;1270;22555;-91
2023/01/23 22:11:06;;;;;;;144.30;34.00;;;;;;;0.72;100.00;100835.27;271453;1272;22399;-91
2023/01/23 22:17:07;;;;;;;147.90;35.30;;;;;;;0.73;100.00;100832.59;272247;1271;24372;-92
2023/01/23 22:23:09;;;;;;;127.00;34.70;;;;;;;0.75;100.00;100827.73;269258;1257;22542;-91
2023/01/23 22:29:12;;;;;;;129.00;34.40;;;;;;;0.76;100.00;100825.36;269915;1272;22537;-92
2023/01/23 22:35:14;;;;;;;132.30;33.20;;;;;;;0.77;100.00;100830.65;268697;1272;22539;-91
2023/01/23 22:41:17;;;;;;;127.30;36.00;;;;;;;0.76;100.00;100830.80;268913;1270;22630;-91
2023/01/23 22:47:19;;;;;;;138.80;35.00;;;;;;;0.76;100.00;100832.59;269986;1270;22387;-90
2023/01/23 22:53:21;;;;;;;131.00;38.80;;;;;;;0.76;100.00;100833.56;271035;1272;24646;-92
2023/01/23 22:59:23;;;;;;;135.60;35.90;;;;;;;0.77;100.00;100837.06;269501;1271;23039;-91
2023/01/23 23:05:25;;;;;;;120.50;40.50;;;;;;;0.77;100.00;100838.14;269628;1271;23650;-92
2023/01/23 23:11:29;;;;;;;130.30;38.30;;;;;;;0.76;100.00;100835.34;269719;1271;22232;-91
2023/01/23 23:17:35;;;;;;;119.50;37.70;;;;;;;0.77;100.00;100831.99;271837;1271;22714;-92
2023/01/23 23:23:37;;;;;;;133.70;41.10;;;;;;;0.79;100.00;100833.58;269039;1272;22544;-92
2023/01/23 23:29:42;;;;;;;124.60;42.10;;;;;;;0.80;100.00;100830.93;272775;1272;23357;-91
2023/01/23 23:35:44;;;;;;;124.60;39.80;;;;;;;0.82;100.00;100824.63;270603;1272;23263;-91
2023/01/23 23:41:49;;;;;;;130.10;41.90;;;;;;;0.83;100.00;100825.17;269332;1272;22648;-93
2023/01/23 23:47:51;;;;;;;124.40;42.00;;;;;;;0.84;100.00;100825.33;269722;1270;22560;-92
2023/01/23 23:53:54;;;;;;;123.20;41.00;;;;;;;0.85;100.00;100817.63;269778;1272;22575;-92
2023/01/23 23:59:57;;;;;;;127.80;41.80;;;;;;;0.86;100.00;100818.05;269083;1272;23287;-93
